sensor_id;sensor_type;location;lat;lon;timestamp;pressure;altitude;pressure_sealevel;temperature;humidity
41102;BME280;26845;50.190;19.178;2024-03-06T00:17:44;98851.46;;;2.98;89.39
41102;BME280;26845;50.190;19.178;2024-03-06T00:20:24;98854.82;;;2.99;89.83
41102;BME280;26845;50.190;19.178;2024-03-06T00:23:07;98859.06;;;3.04;89.99
41102;BME280;26845;50.190;19.178;2024-03-06T00:31:32;98866.59;;;3.14;90.23
41102;BME280;26845;50.190;19.178;2024-03-06T00:34:12;98862.80;;;3.14;90.12
41102;BME280;26845;50.190;19.178;2024-03-06T00:36:52;98868.85;;;3.13;90.16
41102;BME280;26845;50.190;19.178;2024-03-06T00:39:32;98871.20;;;3.15;90.57
41102;BME280;26845;50.190;19.178;2024-03-06T00:42:12;98876.98;;;3.15;90.48
41102;BME280;26845;50.190;19.178;2024-03-06T00:44:52;98871.86;;;3.13;90.38
41102;BME280;26845;50.190;19.178;2024-03-06T00:47:32;98871.89;;;3.10;90.38
41102;BME280;26845;50.190;19.178;2024-03-06T00:50:12;98874.46;;;3.07;90.41
41102;BME280;26845;50.190;19.178;2024-03-06T00:52:52;98874.55;;;2.99;90.39
41102;BME280;26845;50.190;19.178;2024-03-06T00:55:32;98872.67;;;2.90;90.36
41102;BME280;26845;50.190;19.178;2024-03-06T00:58:12;98872.44;;;2.80;90.30
41102;BME280;26845;50.190;19.178;2024-03-06T01:00:52;98873.77;;;2.74;90.55
41102;BME280;26845;50.190;19.178;2024-03-06T01:03:32;98876.90;;;2.66;90.46
41102;BME280;26845;50.190;19.178;2024-03-06T01:06:12;98874.67;;;2.63;90.94
41102;BME280;26845;50.190;19.178;2024-03-06T01:23:24;98881.09;;;2.70;91.53
41102;BME280;26845;50.190;19.178;2024-03-06T01:26:04;98879.15;;;2.68;91.53
41102;BME280;26845;50.190;19.178;2024-03-06T01:28:44;98876.06;;;2.64;91.42
41102;BME280;26845;50.190;19.178;2024-03-06T01:31:24;98876.93;;;2.63;91.74
41102;BME280;26845;50.190;19.178;2024-03-06T01:34:04;98879.21;;;2.66;91.82
41102;BME280;26845;50.190;19.178;2024-03-06T01:36:44;98882.27;;;2.68;91.83
41102;BME280;26845;50.190;19.178;2024-03-06T01:39:24;98882.52;;;2.69;91.83
41102;BME280;26845;50.190;19.178;2024-03-06T01:42:04;98886.06;;;2.67;91.98
41102;BME280;26845;50.190;19.178;2024-03-06T01:44:44;98886.39;;;2.64;91.75
41102;BME280;26845;50.190;19.178;2024-03-06T01:47:24;98885.98;;;2.63;91.94
41102;BME280;26845;50.190;19.178;2024-03-06T01:50:04;98887.17;;;2.60;91.93
41102;BME280;26845;50.190;19.178;2024-03-06T01:52:44;98887.27;;;2.59;91.90
41102;BME280;26845;50.190;19.178;2024-03-06T01:55:24;98889.79;;;2.57;91.86
41102;BME280;26845;50.190;19.178;2024-03-06T01:58:04;98892.70;;;2.50;91.78
41102;BME280;26845;50.190;19.178;2024-03-06T02:00:44;98892.42;;;2.51;92.18
41102;BME280;26845;50.190;19.178;2024-03-06T02:03:24;98895.12;;;2.52;91.95
41102;BME280;26845;50.190;19.178;2024-03-06T02:06:04;98894.98;;;2.49;92.01
41102;BME280;26845;50.190;19.178;2024-03-06T02:08:47;98894.52;;;2.40;91.79
41102;BME280;26845;50.190;19.178;2024-03-06T02:11:27;98888.34;;;2.31;91.79
41102;BME280;26845;50.190;19.178;2024-03-06T02:14:07;98889.83;;;2.17;91.78
41102;BME280;26845;50.190;19.178;2024-03-06T02:16:47;98894.64;;;2.11;92.11
41102;BME280;26845;50.190;19.178;2024-03-06T02:19:43;98891.55;;;2.09;92.54
41102;BME280;26845;50.190;19.178;2024-03-06T02:22:19;98890.57;;;2.15;92.94
41102;BME280;26845;50.190;19.178;2024-03-06T02:24:59;98892.02;;;2.17;92.80
41102;BME280;26845;50.190;19.178;2024-03-06T02:27:39;98896.02;;;2.13;92.53
41102;BME280;26845;50.190;19.178;2024-03-06T02:30:19;98898.17;;;2.12;92.65
41102;BME280;26845;50.190;19.178;2024-03-06T02:33:02;98893.52;;;2.13;92.72
41102;BME280;26845;50.190;19.178;2024-03-06T02:35:39;98892.73;;;2.06;92.49
41102;BME280;26845;50.190;19.178;2024-03-06T02:38:19;98891.48;;;2.00;92.59
41102;BME280;26845;50.190;19.178;2024-03-06T02:40:59;98890.52;;;1.92;92.50
41102;BME280;26845;50.190;19.178;2024-03-06T02:43:39;98894.20;;;1.89;92.80
41102;BME280;26845;50.190;19.178;2024-03-06T02:46:19;98891.55;;;1.91;92.76
41102;BME280;26845;50.190;19.178;2024-03-06T02:48:59;98890.60;;;1.91;92.92
41102;BME280;26845;50.190;19.178;2024-03-06T02:51:39;98891.12;;;1.93;92.97
41102;BME280;26845;50.190;19.178;2024-03-06T02:54:22;98891.42;;;1.97;93.13
41102;BME280;26845;50.190;19.178;2024-03-06T02:56:59;98890.58;;;1.98;93.30
41102;BME280;26845;50.190;19.178;2024-03-06T02:59:39;98898.45;;;2.02;93.43
41102;BME280;26845;50.190;19.178;2024-03-06T03:02:19;98896.14;;;2.06;93.31
41102;BME280;26845;50.190;19.178;2024-03-06T03:04:59;98894.21;;;1.99;92.99
41102;BME280;26845;50.190;19.178;2024-03-06T03:07:39;98895.36;;;1.95;93.22
41102;BME280;26845;50.190;19.178;2024-03-06T03:10:19;98898.67;;;1.97;93.40
41102;BME280;26845;50.190;19.178;2024-03-06T03:15:54;98906.96;;;1.88;93.08
41102;BME280;26845;50.190;19.178;2024-03-06T03:18:34;98902.83;;;1.81;93.31
41102;BME280;26845;50.190;19.178;2024-03-06T03:21:14;98908.83;;;1.77;93.35
41102;BME280;26845;50.190;19.178;2024-03-06T03:23:54;98907.88;;;1.71;93.23
41102;BME280;26845;50.190;19.178;2024-03-06T03:26:34;98905.98;;;1.60;93.25
41102;BME280;26845;50.190;19.178;2024-03-06T03:29:14;98910.29;;;1.57;93.58
41102;BME280;26845;50.190;19.178;2024-03-06T03:31:54;98912.36;;;1.61;93.80
41102;BME280;26845;50.190;19.178;2024-03-06T03:34:34;98918.39;;;1.61;94.08
41102;BME280;26845;50.190;19.178;2024-03-06T03:37:14;98914.22;;;1.64;93.81
41102;BME280;26845;50.190;19.178;2024-03-06T03:39:54;98917.48;;;1.53;93.49
41102;BME280;26845;50.190;19.178;2024-03-06T03:42:34;98920.78;;;1.38;93.45
41102;BME280;26845;50.190;19.178;2024-03-06T03:45:14;98923.95;;;1.33;93.80
41102;BME280;26845;50.190;19.178;2024-03-06T03:47:54;98924.60;;;1.32;93.83
41102;BME280;26845;50.190;19.178;2024-03-06T03:50:34;98915.88;;;1.35;94.01
41102;BME280;26845;50.190;19.178;2024-03-06T03:53:14;98918.80;;;1.33;94.10
41102;BME280;26845;50.190;19.178;2024-03-06T03:55:54;98924.84;;;1.38;94.30
41102;BME280;26845;50.190;19.178;2024-03-06T03:58:37;98926.71;;;1.35;93.95
41102;BME280;26845;50.190;19.178;2024-03-06T04:01:14;98925.11;;;1.29;93.96
41102;BME280;26845;50.190;19.178;2024-03-06T04:03:54;98920.95;;;1.29;94.25
41102;BME280;26845;50.190;19.178;2024-03-06T04:06:34;98920.86;;;1.23;93.95
41102;BME280;26845;50.190;19.178;2024-03-06T04:09:14;98924.86;;;1.16;94.05
41102;BME280;26845;50.190;19.178;2024-03-06T04:11:54;98924.50;;;1.13;94.14
41102;BME280;26845;50.190;19.178;2024-03-06T04:14:34;98928.49;;;1.13;94.21
41102;BME280;26845;50.190;19.178;2024-03-06T04:17:14;98926.34;;;1.16;94.53
41102;BME280;26845;50.190;19.178;2024-03-06T04:19:54;98924.48;;;1.12;94.18
41102;BME280;26845;50.190;19.178;2024-03-06T04:22:34;98922.85;;;1.12;94.43
41102;BME280;26845;50.190;19.178;2024-03-06T04:25:14;98927.47;;;1.06;94.34
41102;BME280;26845;50.190;19.178;2024-03-06T04:27:57;98930.64;;;0.95;94.31
41102;BME280;26845;50.190;19.178;2024-03-06T04:30:34;98934.85;;;0.85;94.25
41102;BME280;26845;50.190;19.178;2024-03-06T04:33:14;98934.09;;;0.86;94.54
41102;BME280;26845;50.190;19.178;2024-03-06T04:35:55;98940.76;;;0.91;94.94
41102;BME280;26845;50.190;19.178;2024-03-06T04:38:34;98941.70;;;0.95;95.06
41102;BME280;26845;50.190;19.178;2024-03-06T04:41:14;98937.77;;;1.02;95.17
41102;BME280;26845;50.190;19.178;2024-03-06T04:43:54;98941.69;;;1.05;94.97
41102;BME280;26845;50.190;19.178;2024-03-06T04:46:34;98940.58;;;1.04;94.85
41102;BME280;26845;50.190;19.178;2024-03-06T04:49:14;98941.95;;;1.00;94.75
41102;BME280;26845;50.190;19.178;2024-03-06T04:51:57;98943.71;;;0.97;95.09
41102;BME280;26845;50.190;19.178;2024-03-06T04:54:34;98944.82;;;0.99;95.15
41102;BME280;26845;50.190;19.178;2024-03-06T04:57:14;98943.02;;;1.03;95.46
41102;BME280;26845;50.190;19.178;2024-03-06T04:59:54;98951.54;;;1.02;95.34
41102;BME280;26845;50.190;19.178;2024-03-06T05:02:34;98950.42;;;1.04;95.45
41102;BME280;26845;50.190;19.178;2024-03-06T05:05:14;98951.74;;;1.04;95.59
41102;BME280;26845;50.190;19.178;2024-03-06T05:07:54;98951.89;;;0.99;95.53
41102;BME280;26845;50.190;19.178;2024-03-06T05:16:24;98956.27;;;1.03;95.73
41102;BME280;26845;50.190;19.178;2024-03-06T05:19:04;98963.19;;;1.03;95.58
41102;BME280;26845;50.190;19.178;2024-03-06T05:21:44;98963.09;;;1.02;95.69
41102;BME280;26845;50.190;19.178;2024-03-06T05:24:24;98958.45;;;0.99;95.52
41102;BME280;26845;50.190;19.178;2024-03-06T05:27:04;98962.73;;;0.96;95.81
41102;BME280;26845;50.190;19.178;2024-03-06T05:29:44;98958.89;;;0.95;95.68
41102;BME280;26845;50.190;19.178;2024-03-06T05:32:24;98961.96;;;0.95;95.77
41102;BME280;26845;50.190;19.178;2024-03-06T05:35:04;98966.83;;;0.94;95.74
41102;BME280;26845;50.190;19.178;2024-03-06T05:37:44;98968.30;;;0.99;95.94
41102;BME280;26845;50.190;19.178;2024-03-06T05:40:24;98969.60;;;0.91;95.77
41102;BME280;26845;50.190;19.178;2024-03-06T05:43:04;98974.63;;;0.90;95.96
41102;BME280;26845;50.190;19.178;2024-03-06T05:45:44;98979.91;;;0.84;95.99
41102;BME280;26845;50.190;19.178;2024-03-06T05:48:24;98984.38;;;0.86;96.22
41102;BME280;26845;50.190;19.178;2024-03-06T05:51:05;98985.23;;;0.87;96.33
41102;BME280;26845;50.190;19.178;2024-03-06T05:53:44;98984.05;;;0.87;96.47
41102;BME280;26845;50.190;19.178;2024-03-06T05:56:24;98983.89;;;0.87;96.82
41102;BME280;26845;50.190;19.178;2024-03-06T05:59:04;98985.52;;;0.83;96.39
41102;BME280;26845;50.190;19.178;2024-03-06T06:01:44;98983.52;;;0.87;97.02
41102;BME280;26845;50.190;19.178;2024-03-06T06:04:24;98989.17;;;0.93;96.88
41102;BME280;26845;50.190;19.178;2024-03-06T06:07:04;98990.17;;;0.93;97.15
41102;BME280;26845;50.190;19.178;2024-03-06T06:09:45;98989.61;;;0.93;97.32
41102;BME280;26845;50.190;19.178;2024-03-06T06:12:25;98992.17;;;0.99;97.17
41102;BME280;26845;50.190;19.178;2024-03-06T06:26:43;98992.48;;;1.08;97.84
41102;BME280;26845;50.190;19.178;2024-03-06T06:29:23;98991.11;;;1.12;97.79
41102;BME280;26845;50.190;19.178;2024-03-06T06:32:03;98990.41;;;1.16;97.80
41102;BME280;26845;50.190;19.178;2024-03-06T06:34:43;98996.71;;;1.19;97.79
41102;BME280;26845;50.190;19.178;2024-03-06T06:37:23;99000.84;;;1.21;97.93
41102;BME280;26845;50.190;19.178;2024-03-06T06:40:03;98998.86;;;1.31;98.23
41102;BME280;26845;50.190;19.178;2024-03-06T06:42:46;99004.44;;;1.42;98.30
41102;BME280;26845;50.190;19.178;2024-03-06T06:45:26;98994.92;;;1.49;98.33
41102;BME280;26845;50.190;19.178;2024-03-06T06:48:07;98994.27;;;1.56;98.13
41102;BME280;26845;50.190;19.178;2024-03-06T06:50:47;98995.80;;;1.56;98.10
41102;BME280;26845;50.190;19.178;2024-03-06T06:53:27;98995.00;;;1.66;98.41
41102;BME280;26845;50.190;19.178;2024-03-06T06:56:07;98999.59;;;1.77;98.49
41102;BME280;26845;50.190;19.178;2024-03-06T06:58:47;98997.17;;;1.89;98.69
41102;BME280;26845;50.190;19.178;2024-03-06T07:01:27;98999.23;;;1.97;98.60
41102;BME280;26845;50.190;19.178;2024-03-06T07:04:07;98994.77;;;2.01;98.42
41102;BME280;26845;50.190;19.178;2024-03-06T07:06:47;98989.30;;;2.07;98.48
41102;BME280;26845;50.190;19.178;2024-03-06T07:09:27;98994.10;;;2.14;98.69
41102;BME280;26845;50.190;19.178;2024-03-06T07:12:07;98986.77;;;2.15;98.44
41102;BME280;26845;50.190;19.178;2024-03-06T07:14:47;98989.33;;;2.18;98.42
41102;BME280;26845;50.190;19.178;2024-03-06T07:17:27;98989.27;;;2.24;98.50
41102;BME280;26845;50.190;19.178;2024-03-06T07:20:07;98986.85;;;2.28;98.57
41102;BME280;26845;50.190;19.178;2024-03-06T07:22:47;98992.33;;;2.37;98.72
41102;BME280;26845;50.190;19.178;2024-03-06T07:25:27;98990.79;;;2.38;98.52
41102;BME280;26845;50.190;19.178;2024-03-06T07:28:07;98993.36;;;2.32;98.13
41102;BME280;26845;50.190;19.178;2024-03-06T07:30:48;98999.34;;;2.32;98.49
41102;BME280;26845;50.190;19.178;2024-03-06T07:33:30;99003.86;;;2.34;98.42
41102;BME280;26845;50.190;19.178;2024-03-06T07:36:09;98997.70;;;2.28;98.44
41102;BME280;26845;50.190;19.178;2024-03-06T07:38:49;99002.65;;;2.35;98.81
41102;BME280;26845;50.190;19.178;2024-03-06T07:41:29;99008.89;;;2.37;98.77
41102;BME280;26845;50.190;19.178;2024-03-06T07:44:09;99009.20;;;2.41;98.95
41102;BME280;26845;50.190;19.178;2024-03-06T07:46:49;99007.46;;;2.49;99.10
41102;BME280;26845;50.190;19.178;2024-03-06T07:49:29;99011.93;;;2.63;99.58
41102;BME280;26845;50.190;19.178;2024-03-06T07:52:09;99012.56;;;2.77;99.47
41102;BME280;26845;50.190;19.178;2024-03-06T07:54:50;99012.40;;;2.83;99.04
41102;BME280;26845;50.190;19.178;2024-03-06T07:57:31;99016.84;;;2.87;98.97
41102;BME280;26845;50.190;19.178;2024-03-06T08:00:12;99016.65;;;2.91;98.91
41102;BME280;26845;50.190;19.178;2024-03-06T08:05:47;99017.81;;;2.93;98.63
41102;BME280;26845;50.190;19.178;2024-03-06T08:08:27;99013.38;;;2.99;98.99
41102;BME280;26845;50.190;19.178;2024-03-06T08:11:07;99013.77;;;3.10;99.40
41102;BME280;26845;50.190;19.178;2024-03-06T08:13:56;99011.79;;;3.31;99.67
41102;BME280;26845;50.190;19.178;2024-03-06T08:16:27;99013.45;;;3.50;99.76
41102;BME280;26845;50.190;19.178;2024-03-06T08:19:07;99014.91;;;3.66;99.84
41102;BME280;26845;50.190;19.178;2024-03-06T08:21:47;99008.60;;;3.78;99.45
41102;BME280;26845;50.190;19.178;2024-03-06T08:24:27;99011.10;;;3.84;99.29
41102;BME280;26845;50.190;19.178;2024-03-06T08:27:08;99008.55;;;3.93;98.89
41102;BME280;26845;50.190;19.178;2024-03-06T08:29:51;99011.61;;;4.00;98.83
41102;BME280;26845;50.190;19.178;2024-03-06T08:32:28;99014.28;;;4.23;99.34
41102;BME280;26845;50.190;19.178;2024-03-06T08:35:08;99013.56;;;4.38;98.92
41102;BME280;26845;50.190;19.178;2024-03-06T08:37:48;99012.20;;;4.45;98.88
41102;BME280;26845;50.190;19.178;2024-03-06T08:40:28;99015.23;;;4.53;98.82
41102;BME280;26845;50.190;19.178;2024-03-06T08:43:08;99017.34;;;4.55;98.15
41102;BME280;26845;50.190;19.178;2024-03-06T08:45:48;99004.25;;;4.58;98.66
41102;BME280;26845;50.190;19.178;2024-03-06T08:48:28;99008.51;;;4.69;98.61
41102;BME280;26845;50.190;19.178;2024-03-06T08:51:08;99010.29;;;4.94;98.95
41102;BME280;26845;50.190;19.178;2024-03-06T08:53:49;99015.63;;;5.03;97.66
41102;BME280;26845;50.190;19.178;2024-03-06T08:56:30;99017.46;;;5.00;97.54
41102;BME280;26845;50.190;19.178;2024-03-06T08:59:10;99020.27;;;5.12;98.06
41102;BME280;26845;50.190;19.178;2024-03-06T09:04:45;99019.91;;;5.47;97.97
41102;BME280;26845;50.190;19.178;2024-03-06T09:07:25;99018.02;;;5.49;97.50
41102;BME280;26845;50.190;19.178;2024-03-06T09:10:05;99014.10;;;5.53;96.85
41102;BME280;26845;50.190;19.178;2024-03-06T09:12:45;99015.15;;;5.46;96.34
41102;BME280;26845;50.190;19.178;2024-03-06T09:15:25;99008.45;;;5.43;96.48
41102;BME280;26845;50.190;19.178;2024-03-06T09:18:05;99007.77;;;5.44;96.76
41102;BME280;26845;50.190;19.178;2024-03-06T09:20:46;99006.63;;;5.46;96.26
41102;BME280;26845;50.190;19.178;2024-03-06T09:23:27;99010.81;;;5.43;96.40
41102;BME280;26845;50.190;19.178;2024-03-06T09:26:07;99006.02;;;5.38;95.82
41102;BME280;26845;50.190;19.178;2024-03-06T09:28:47;99004.14;;;5.34;95.47
41102;BME280;26845;50.190;19.178;2024-03-06T09:31:27;99007.79;;;5.32;95.75
41102;BME280;26845;50.190;19.178;2024-03-06T09:34:07;99011.77;;;5.32;95.43
41102;BME280;26845;50.190;19.178;2024-03-06T09:36:48;99008.73;;;5.34;95.62
41102;BME280;26845;50.190;19.178;2024-03-06T09:39:27;99013.13;;;5.42;95.54
41102;BME280;26845;50.190;19.178;2024-03-06T09:42:07;99013.19;;;5.45;95.15
41102;BME280;26845;50.190;19.178;2024-03-06T09:44:47;99014.44;;;5.50;95.06
41102;BME280;26845;50.190;19.178;2024-03-06T09:47:27;99016.59;;;5.46;94.83
41102;BME280;26845;50.190;19.178;2024-03-06T09:50:08;99008.37;;;5.47;94.99
41102;BME280;26845;50.190;19.178;2024-03-06T09:52:47;99011.79;;;5.51;94.35
41102;BME280;26845;50.190;19.178;2024-03-06T09:55:27;99017.92;;;5.45;94.48
41102;BME280;26845;50.190;19.178;2024-03-06T09:58:07;99017.81;;;5.44;94.50
41102;BME280;26845;50.190;19.178;2024-03-06T10:00:47;99016.54;;;5.42;94.27
41102;BME280;26845;50.190;19.178;2024-03-06T10:03:27;99014.35;;;5.37;94.37
41102;BME280;26845;50.190;19.178;2024-03-06T10:06:07;99015.44;;;5.36;93.90
41102;BME280;26845;50.190;19.178;2024-03-06T10:08:47;99010.77;;;5.35;94.12
41102;BME280;26845;50.190;19.178;2024-03-06T10:11:27;99008.62;;;5.37;94.17
41102;BME280;26845;50.190;19.178;2024-03-06T10:14:07;99014.73;;;5.40;94.13
41102;BME280;26845;50.190;19.178;2024-03-06T10:16:53;99019.20;;;5.36;93.78
41102;BME280;26845;50.190;19.178;2024-03-06T10:19:33;99022.90;;;5.28;93.76
41102;BME280;26845;50.190;19.178;2024-03-06T10:22:10;99025.98;;;5.23;93.83
41102;BME280;26845;50.190;19.178;2024-03-06T10:24:50;99028.40;;;5.23;93.76
41102;BME280;26845;50.190;19.178;2024-03-06T10:27:30;99028.06;;;5.26;93.90
41102;BME280;26845;50.190;19.178;2024-03-06T10:30:11;99025.17;;;5.23;93.82
41102;BME280;26845;50.190;19.178;2024-03-06T10:32:52;99029.41;;;5.23;93.75
41102;BME280;26845;50.190;19.178;2024-03-06T10:35:32;99024.17;;;5.18;93.54
41102;BME280;26845;50.190;19.178;2024-03-06T10:38:12;99029.08;;;5.03;93.29
41102;BME280;26845;50.190;19.178;2024-03-06T10:40:52;99025.29;;;5.02;93.53
41102;BME280;26845;50.190;19.178;2024-03-06T10:43:32;99023.46;;;5.00;93.76
41102;BME280;26845;50.190;19.178;2024-03-06T10:46:12;99026.77;;;4.98;93.53
41102;BME280;26845;50.190;19.178;2024-03-06T10:48:53;99024.66;;;4.87;93.67
41102;BME280;26845;50.190;19.178;2024-03-06T10:51:34;99024.94;;;4.90;94.11
41102;BME280;26845;50.190;19.178;2024-03-06T10:54:14;99021.62;;;4.88;93.92
41102;BME280;26845;50.190;19.178;2024-03-06T10:56:54;99024.55;;;4.83;93.97
41102;BME280;26845;50.190;19.178;2024-03-06T10:59:34;99022.29;;;4.83;94.21
41102;BME280;26845;50.190;19.178;2024-03-06T11:02:14;99018.29;;;4.88;94.75
41102;BME280;26845;50.190;19.178;2024-03-06T11:04:54;99016.84;;;4.94;94.70
41102;BME280;26845;50.190;19.178;2024-03-06T11:07:34;99019.81;;;4.98;94.56
41102;BME280;26845;50.190;19.178;2024-03-06T11:10:15;99018.10;;;5.02;94.70
41102;BME280;26845;50.190;19.178;2024-03-06T11:12:54;99014.08;;;5.03;94.81
41102;BME280;26845;50.190;19.178;2024-03-06T11:15:34;99012.23;;;4.97;94.53
41102;BME280;26845;50.190;19.178;2024-03-06T11:24:12;99007.59;;;4.87;94.99
41102;BME280;26845;50.190;19.178;2024-03-06T11:26:55;99005.44;;;4.81;95.08
41102;BME280;26845;50.190;19.178;2024-03-06T11:32:27;99003.67;;;4.84;95.46
41102;BME280;26845;50.190;19.178;2024-03-06T11:35:01;99002.23;;;4.82;95.49
41102;BME280;26845;50.190;19.178;2024-03-06T11:37:36;99000.64;;;4.82;95.70
41102;BME280;26845;50.190;19.178;2024-03-06T11:40:09;99005.05;;;4.85;95.80
41102;BME280;26845;50.190;19.178;2024-03-06T11:42:43;98998.05;;;4.82;95.47
41102;BME280;26845;50.190;19.178;2024-03-06T11:45:17;98997.27;;;4.80;95.58
41102;BME280;26845;50.190;19.178;2024-03-06T11:47:58;99000.91;;;4.79;95.56
41102;BME280;26845;50.190;19.178;2024-03-06T11:50:30;98999.80;;;4.71;95.43
41102;BME280;26845;50.190;19.178;2024-03-06T11:53:04;99004.75;;;4.62;95.35
41102;BME280;26845;50.190;19.178;2024-03-06T11:58:11;98999.61;;;4.50;95.61
41102;BME280;26845;50.190;19.178;2024-03-06T12:00:45;98994.64;;;4.47;95.64
41102;BME280;26845;50.190;19.178;2024-03-06T12:03:20;98992.65;;;4.45;96.04
41102;BME280;26845;50.190;19.178;2024-03-06T12:05:54;98991.08;;;4.49;96.30
41102;BME280;26845;50.190;19.178;2024-03-06T12:08:35;98991.36;;;4.55;96.49
41102;BME280;26845;50.190;19.178;2024-03-06T12:11:08;98989.21;;;4.57;96.40
41102;BME280;26845;50.190;19.178;2024-03-06T12:13:42;98989.11;;;4.58;96.48
41102;BME280;26845;50.190;19.178;2024-03-06T12:16:16;98991.59;;;4.59;96.51
41102;BME280;26845;50.190;19.178;2024-03-06T12:18:56;98991.20;;;4.56;96.63
41102;BME280;26845;50.190;19.178;2024-03-06T12:21:33;98990.80;;;4.55;96.61
41102;BME280;26845;50.190;19.178;2024-03-06T12:24:15;98989.37;;;4.49;96.42
41102;BME280;26845;50.190;19.178;2024-03-06T12:29:33;98985.39;;;4.44;97.05
41102;BME280;26845;50.190;19.178;2024-03-06T12:32:16;98985.35;;;4.44;96.79
41102;BME280;26845;50.190;19.178;2024-03-06T12:34:56;98977.46;;;4.44;97.08
41102;BME280;26845;50.190;19.178;2024-03-06T12:37:36;98982.59;;;4.47;97.32
41102;BME280;26845;50.190;19.178;2024-03-06T12:40:16;98983.33;;;4.53;97.43
41102;BME280;26845;50.190;19.178;2024-03-06T12:42:56;98982.78;;;4.57;97.63
41102;BME280;26845;50.190;19.178;2024-03-06T12:45:36;98982.52;;;4.61;97.76
41102;BME280;26845;50.190;19.178;2024-03-06T12:48:16;98985.70;;;4.64;97.57
41102;BME280;26845;50.190;19.178;2024-03-06T12:53:51;98986.53;;;4.70;97.67
41102;BME280;26845;50.190;19.178;2024-03-06T12:56:31;98987.86;;;4.73;97.68
41102;BME280;26845;50.190;19.178;2024-03-06T12:59:11;98986.36;;;4.72;97.53
41102;BME280;26845;50.190;19.178;2024-03-06T13:01:51;98983.66;;;4.69;97.77
41102;BME280;26845;50.190;19.178;2024-03-06T13:04:31;98993.80;;;4.71;97.80
41102;BME280;26845;50.190;19.178;2024-03-06T13:07:11;98992.38;;;4.71;97.77
41102;BME280;26845;50.190;19.178;2024-03-06T13:09:51;98994.73;;;4.72;97.65
41102;BME280;26845;50.190;19.178;2024-03-06T13:12:31;98990.94;;;4.72;97.76
41102;BME280;26845;50.190;19.178;2024-03-06T13:15:11;98993.41;;;4.74;97.78
41102;BME280;26845;50.190;19.178;2024-03-06T13:17:51;98989.08;;;4.78;98.13
41102;BME280;26845;50.190;19.178;2024-03-06T13:20:31;98987.25;;;4.78;97.99
41102;BME280;26845;50.190;19.178;2024-03-06T13:23:11;98990.55;;;4.75;97.98
41102;BME280;26845;50.190;19.178;2024-03-06T13:25:51;98989.58;;;4.73;98.03
41102;BME280;26845;50.190;19.178;2024-03-06T13:28:31;98983.95;;;4.72;97.96
41102;BME280;26845;50.190;19.178;2024-03-06T13:31:11;98988.89;;;4.70;97.97
41102;BME280;26845;50.190;19.178;2024-03-06T13:33:51;98984.16;;;4.67;97.95
41102;BME280;26845;50.190;19.178;2024-03-06T13:36:31;98986.83;;;4.71;98.42
41102;BME280;26845;50.190;19.178;2024-03-06T13:39:11;98985.77;;;4.75;98.20
41102;BME280;26845;50.190;19.178;2024-03-06T13:41:51;98983.56;;;4.75;98.08
41102;BME280;26845;50.190;19.178;2024-03-06T13:44:31;98980.80;;;4.78;98.56
41102;BME280;26845;50.190;19.178;2024-03-06T13:47:14;98982.36;;;4.83;98.40
41102;BME280;26845;50.190;19.178;2024-03-06T13:49:51;98979.39;;;4.87;98.41
41102;BME280;26845;50.190;19.178;2024-03-06T13:52:31;98984.17;;;4.86;98.61
41102;BME280;26845;50.190;19.178;2024-03-06T13:55:11;98984.34;;;4.86;98.44
41102;BME280;26845;50.190;19.178;2024-03-06T13:57:51;98986.05;;;4.89;98.66
41102;BME280;26845;50.190;19.178;2024-03-06T14:00:31;98984.11;;;4.83;98.53
41102;BME280;26845;50.190;19.178;2024-03-06T14:03:11;98985.48;;;4.86;98.63
41102;BME280;26845;50.190;19.178;2024-03-06T14:05:51;98991.50;;;4.85;98.49
41102;BME280;26845;50.190;19.178;2024-03-06T14:08:31;98985.05;;;4.80;98.65
41102;BME280;26845;50.190;19.178;2024-03-06T14:11:11;98981.30;;;4.76;98.65
41102;BME280;26845;50.190;19.178;2024-03-06T14:13:51;98981.80;;;4.70;98.66
41102;BME280;26845;50.190;19.178;2024-03-06T14:16:31;98987.19;;;4.62;98.24
41102;BME280;26845;50.190;19.178;2024-03-06T14:19:11;98986.96;;;4.54;98.60
41102;BME280;26845;50.190;19.178;2024-03-06T14:21:51;98990.14;;;4.49;98.77
41102;BME280;26845;50.190;19.178;2024-03-06T14:30:19;98988.94;;;4.54;99.11
41102;BME280;26845;50.190;19.178;2024-03-06T14:32:59;98989.02;;;4.50;99.19
41102;BME280;26845;50.190;19.178;2024-03-06T14:35:39;98987.11;;;4.50;99.28
41102;BME280;26845;50.190;19.178;2024-03-06T14:38:19;98989.77;;;4.55;99.74
41102;BME280;26845;50.190;19.178;2024-03-06T14:40:59;98993.79;;;4.60;99.67
41102;BME280;26845;50.190;19.178;2024-03-06T14:43:39;98991.05;;;4.63;99.66
41102;BME280;26845;50.190;19.178;2024-03-06T14:46:19;98992.58;;;4.65;99.58
41102;BME280;26845;50.190;19.178;2024-03-06T14:48:59;98990.42;;;4.66;99.56
41102;BME280;26845;50.190;19.178;2024-03-06T14:51:39;98989.98;;;4.65;99.84
41102;BME280;26845;50.190;19.178;2024-03-06T14:57:13;98992.02;;;4.62;99.70
41102;BME280;26845;50.190;19.178;2024-03-06T14:59:53;98992.87;;;4.65;99.84
41102;BME280;26845;50.190;19.178;2024-03-06T15:02:33;98990.16;;;4.62;99.55
41102;BME280;26845;50.190;19.178;2024-03-06T15:05:13;98991.91;;;4.59;99.77
41102;BME280;26845;50.190;19.178;2024-03-06T15:07:53;98994.52;;;4.63;99.97
41102;BME280;26845;50.190;19.178;2024-03-06T15:10:33;98994.84;;;4.65;99.97
41102;BME280;26845;50.190;19.178;2024-03-06T15:13:13;98995.08;;;4.67;100.00
41102;BME280;26845;50.190;19.178;2024-03-06T15:15:53;98996.98;;;4.66;100.00
41102;BME280;26845;50.190;19.178;2024-03-06T15:18:33;98989.94;;;4.63;100.00
41102;BME280;26845;50.190;19.178;2024-03-06T15:21:13;98988.90;;;4.71;100.00
41102;BME280;26845;50.190;19.178;2024-03-06T15:23:53;98989.90;;;4.77;100.00
41102;BME280;26845;50.190;19.178;2024-03-06T15:26:33;98990.88;;;4.76;100.00
41102;BME280;26845;50.190;19.178;2024-03-06T15:29:13;98991.59;;;4.74;100.00
41102;BME280;26845;50.190;19.178;2024-03-06T15:31:53;98988.78;;;4.74;100.00
41102;BME280;26845;50.190;19.178;2024-03-06T15:34:33;98986.41;;;4.74;100.00